No particular awareness of the weather is required.    There are no Weather-warnings


Meteo18 Weather Cam more information Meteo18 Weather Cam


Thunder radar more information blitzortung!


Rain radar more information rain snow radar


Visit our other weather sites:

Template documentation
and downloads

And another site



Weather Underground History page Text

Daily Summary for April 19, 2017 Units:  Both    English   Metric
« Previous Day
Next Day »
Daily Weekly Monthly Yearly Custom
  High: Low: Average:
Temperature: 50.5 °F /  10.3 °C 33.8 °F /  1.0 °C 42.4 °F /  5.8 °C
Dew Point: 35.8 °F /  2.1 °C 25.5 °F /  -3.6 °C 30.4 °F /  -0.9 °C
Humidity: 88 % 41 % 64 %
Wind Speed: 22 mph /  35.4 km/h - 6.2 mph /  9.9 km/h
Wind Gust: 27 mph /  43.4 km/h - -
Wind:- - East
Pressure: 30.5 in /  1033.1 hPa 30.4 in /  1029.3 hPa -
Precipitation: 0 in /  0.0 mm    
Historical Graphs
 
 
Tabular Data for April 19, 2017
Time Temperature Dew Point Pressure Wind Wind Speed Wind Gust Humidity Rainfall Rate (Hourly)
00:07 39.4 °F /  4.1 °C 34.3 °F /  1.3 °C 30.4 in /  1029.3 hPa Calm   8 mph /  12.9 km/h 82 % 0 in /  0.0 mm
00:12 39.4 °F /  4.1 °C 34.3 °F /  1.3 °C 30.4 in /  1029.3 hPa NNW 3 mph /  4.8 km/h 8 mph /  12.9 km/h 82 % 0 in /  0.0 mm
00:17 39.7 °F /  4.3 °C 34.3 °F /  1.3 °C 30.4 in /  1029.3 hPa NE 3 mph /  4.8 km/h 8 mph /  12.9 km/h 81 % 0 in /  0.0 mm
00:22 39.6 °F /  4.2 °C 34.2 °F /  1.2 °C 30.4 in /  1029.3 hPa NE 4 mph /  6.4 km/h 12 mph /  19.3 km/h 81 % 0 in /  0.0 mm
00:27 39.2 °F /  4.0 °C 33.8 °F /  1.0 °C 30.4 in /  1029.3 hPa NE 1 mph /  1.6 km/h 12 mph /  19.3 km/h 81 % 0 in /  0.0 mm
00:32 39 °F /  3.9 °C 33.6 °F /  0.9 °C 30.4 in /  1029.3 hPa North 3 mph /  4.8 km/h 12 mph /  19.3 km/h 81 % 0 in /  0.0 mm
00:37 39 °F /  3.9 °C 33.6 °F /  0.9 °C 30.4 in /  1029.3 hPa NE 2 mph /  3.2 km/h 6 mph /  9.7 km/h 81 % 0 in /  0.0 mm
00:42 39.2 °F /  4.0 °C 33.6 °F /  0.9 °C 30.4 in /  1029.3 hPa North 2 mph /  3.2 km/h 6 mph /  9.7 km/h 80 % 0 in /  0.0 mm
00:52 38.8 °F /  3.8 °C 33.4 °F /  0.8 °C 30.4 in /  1029.3 hPa North 1 mph /  1.6 km/h 5 mph /  8.0 km/h 81 % 0 in /  0.0 mm
00:57 38.8 °F /  3.8 °C 33.4 °F /  0.8 °C 30.4 in /  1029.3 hPa NNE 1 mph /  1.6 km/h 4 mph /  6.4 km/h 81 % 0 in /  0.0 mm
01:02 38.8 °F /  3.8 °C 33.4 °F /  0.8 °C 30.4 in /  1029.3 hPa NNW 4 mph /  6.4 km/h 4 mph /  6.4 km/h 81 % 0 in /  0.0 mm
01:12 38.8 °F /  3.8 °C 33.4 °F /  0.8 °C 30.4 in /  1029.3 hPa NNW 3 mph /  4.8 km/h 5 mph /  8.0 km/h 81 % 0 in /  0.0 mm
01:17 38.5 °F /  3.6 °C 33.1 °F /  0.6 °C 30.4 in /  1029.3 hPa North 2 mph /  3.2 km/h 5 mph /  8.0 km/h 81 % 0 in /  0.0 mm
01:22 38.1 °F /  3.4 °C 32.7 °F /  0.4 °C 30.4 in /  1029.3 hPa NW 1 mph /  1.6 km/h 4 mph /  6.4 km/h 81 % 0 in /  0.0 mm
01:32 37.8 °F /  3.2 °C 33.1 °F /  0.6 °C 30.4 in /  1029.3 hPa NNW 2 mph /  3.2 km/h 4 mph /  6.4 km/h 83 % 0 in /  0.0 mm
01:37 37.8 °F /  3.2 °C 33.1 °F /  0.6 °C 30.4 in /  1029.3 hPa North 5 mph /  8.0 km/h 7 mph /  11.3 km/h 83 % 0 in /  0.0 mm
01:42 37.8 °F /  3.2 °C 33.1 °F /  0.6 °C 30.4 in /  1029.3 hPa NNE 3 mph /  4.8 km/h 7 mph /  11.3 km/h 83 % 0 in /  0.0 mm
01:47 37.8 °F /  3.2 °C 33.1 °F /  0.6 °C 30.4 in /  1029.3 hPa NNE 3 mph /  4.8 km/h 7 mph /  11.3 km/h 83 % 0 in /  0.0 mm
01:52 37.6 °F /  3.1 °C 32.9 °F /  0.5 °C 30.4 in /  1029.3 hPa NE 2 mph /  3.2 km/h 8 mph /  12.9 km/h 83 % 0 in /  0.0 mm
01:57 37.8 °F /  3.2 °C 33.1 °F /  0.6 °C 30.4 in /  1029.3 hPa NNE 6 mph /  9.7 km/h 8 mph /  12.9 km/h 83 % 0 in /  0.0 mm
02:02 37.6 °F /  3.1 °C 32.9 °F /  0.5 °C 30.4 in /  1029.3 hPa North 2 mph /  3.2 km/h 8 mph /  12.9 km/h 83 % 0 in /  0.0 mm
02:07 37.8 °F /  3.2 °C 33.1 °F /  0.6 °C 30.4 in /  1029.3 hPa North 3 mph /  4.8 km/h 8 mph /  12.9 km/h 83 % 0 in /  0.0 mm
02:12 37.6 °F /  3.1 °C 32.9 °F /  0.5 °C 30.4 in /  1029.3 hPa NNE 1 mph /  1.6 km/h 8 mph /  12.9 km/h 83 % 0 in /  0.0 mm
02:17 37.8 °F /  3.2 °C 33.4 °F /  0.8 °C 30.4 in /  1029.3 hPa Calm   8 mph /  12.9 km/h 84 % 0 in /  0.0 mm
02:22 37.6 °F /  3.1 °C 33.3 °F /  0.7 °C 30.4 in /  1029.3 hPa NNE 5 mph /  8.0 km/h 10 mph /  16.1 km/h 84 % 0 in /  0.0 mm
02:32 37 °F /  2.8 °C 32.7 °F /  0.4 °C 30.4 in /  1029.3 hPa NW 3 mph /  4.8 km/h 10 mph /  16.1 km/h 84 % 0 in /  0.0 mm
02:37 37 °F /  2.8 °C 32.9 °F /  0.5 °C 30.4 in /  1029.3 hPa Calm   6 mph /  9.7 km/h 85 % 0 in /  0.0 mm
02:42 36.9 °F /  2.7 °C 32.7 °F /  0.4 °C 30.4 in /  1029.3 hPa North 3 mph /  4.8 km/h 6 mph /  9.7 km/h 85 % 0 in /  0.0 mm
02:47 36.9 °F /  2.7 °C 32.7 °F /  0.4 °C 30.4 in /  1029.3 hPa NNE 4 mph /  6.4 km/h 6 mph /  9.7 km/h 85 % 0 in /  0.0 mm
02:52 36.9 °F /  2.7 °C 32.7 °F /  0.4 °C 30.4 in /  1029.3 hPa NNE 4 mph /  6.4 km/h 7 mph /  11.3 km/h 85 % 0 in /  0.0 mm
02:57 36.9 °F /  2.7 °C 32.7 °F /  0.4 °C 30.4 in /  1029.3 hPa North 6 mph /  9.7 km/h 7 mph /  11.3 km/h 85 % 0 in /  0.0 mm
03:02 36.9 °F /  2.7 °C 32.7 °F /  0.4 °C 30.4 in /  1029.3 hPa NE 1 mph /  1.6 km/h 7 mph /  11.3 km/h 85 % 0 in /  0.0 mm
03:07 36.9 °F /  2.7 °C 32.7 °F /  0.4 °C 30.4 in /  1029.3 hPa NNE 5 mph /  8.0 km/h 6 mph /  9.7 km/h 85 % 0 in /  0.0 mm
03:12 36.9 °F /  2.7 °C 32.7 °F /  0.4 °C 30.4 in /  1029.3 hPa NE 2 mph /  3.2 km/h 7 mph /  11.3 km/h 85 % 0 in /  0.0 mm
03:17 36.9 °F /  2.7 °C 32.7 °F /  0.4 °C 30.4 in /  1029.3 hPa NE 1 mph /  1.6 km/h 7 mph /  11.3 km/h 85 % 0 in /  0.0 mm
03:22 36.7 °F /  2.6 °C 32.5 °F /  0.3 °C 30.4 in /  1029.3 hPa North 2 mph /  3.2 km/h 7 mph /  11.3 km/h 85 % 0 in /  0.0 mm
03:27 36.5 °F /  2.5 °C 32.4 °F /  0.2 °C 30.4 in /  1029.3 hPa NNE 4 mph /  6.4 km/h 5 mph /  8.0 km/h 85 % 0 in /  0.0 mm
03:32 36.5 °F /  2.5 °C 32.4 °F /  0.2 °C 30.4 in /  1029.3 hPa NE 4 mph /  6.4 km/h 5 mph /  8.0 km/h 85 % 0 in /  0.0 mm
03:37 36.3 °F /  2.4 °C 32.2 °F /  0.1 °C 30.4 in /  1029.3 hPa North 4 mph /  6.4 km/h 5 mph /  8.0 km/h 85 % 0 in /  0.0 mm
03:42 36.3 °F /  2.4 °C 32.2 °F /  0.1 °C 30.4 in /  1029.3 hPa NE 2 mph /  3.2 km/h 5 mph /  8.0 km/h 85 % 0 in /  0.0 mm
03:52 36.3 °F /  2.4 °C 32.2 °F /  0.1 °C 30.4 in /  1029.3 hPa NE 1 mph /  1.6 km/h 6 mph /  9.7 km/h 85 % 0 in /  0.0 mm
04:02 36.9 °F /  2.7 °C 32.5 °F /  0.3 °C 30.4 in /  1029.3 hPa NNE 7 mph /  11.3 km/h 7 mph /  11.3 km/h 84 % 0 in /  0.0 mm
04:12 36.7 °F /  2.6 °C 32.5 °F /  0.3 °C 30.4 in /  1029.3 hPa NE 5 mph /  8.0 km/h 10 mph /  16.1 km/h 85 % 0 in /  0.0 mm
04:17 36.7 °F /  2.6 °C 32.4 °F /  0.2 °C 30.4 in /  1029.3 hPa NE 5 mph /  8.0 km/h 8 mph /  12.9 km/h 84 % 0 in /  0.0 mm
04:22 36.5 °F /  2.5 °C 32.4 °F /  0.2 °C 30.4 in /  1029.7 hPa NE 1 mph /  1.6 km/h 9 mph /  14.5 km/h 85 % 0 in /  0.0 mm
04:32 36.1 °F /  2.3 °C 32 °F /  0.0 °C 30.4 in /  1029.7 hPa NNE 1 mph /  1.6 km/h 9 mph /  14.5 km/h 85 % 0 in /  0.0 mm
04:37 36.1 °F /  2.3 °C 32 °F /  0.0 °C 30.4 in /  1029.7 hPa North 3 mph /  4.8 km/h 7 mph /  11.3 km/h 85 % 0 in /  0.0 mm
04:42 36.1 °F /  2.3 °C 32 °F /  0.0 °C 30.4 in /  1029.7 hPa North 4 mph /  6.4 km/h 7 mph /  11.3 km/h 85 % 0 in /  0.0 mm
04:47 36 °F /  2.2 °C 31.8 °F /  -0.1 °C 30.4 in /  1029.7 hPa NNE 3 mph /  4.8 km/h 9 mph /  14.5 km/h 85 % 0 in /  0.0 mm
04:52 35.8 °F /  2.1 °C 31.6 °F /  -0.2 °C 30.4 in /  1029.7 hPa NNW 1 mph /  1.6 km/h 9 mph /  14.5 km/h 85 % 0 in /  0.0 mm
05:02 35.2 °F /  1.8 °C 31.5 °F /  -0.3 °C 30.4 in /  1029.7 hPa NNE 1 mph /  1.6 km/h 7 mph /  11.3 km/h 86 % 0 in /  0.0 mm
05:12 35.1 °F /  1.7 °C 31.6 °F /  -0.2 °C 30.4 in /  1029.7 hPa NNE 3 mph /  4.8 km/h 8 mph /  12.9 km/h 87 % 0 in /  0.0 mm
05:17 35.1 °F /  1.7 °C 31.6 °F /  -0.2 °C 30.4 in /  1029.7 hPa NNW 2 mph /  3.2 km/h 8 mph /  12.9 km/h 87 % 0 in /  0.0 mm
05:22 34.9 °F /  1.6 °C 31.5 °F /  -0.3 °C 30.4 in /  1029.7 hPa NNE 3 mph /  4.8 km/h 8 mph /  12.9 km/h 87 % 0 in /  0.0 mm
05:32 34.9 °F /  1.6 °C 31.5 °F /  -0.3 °C 30.4 in /  1029.7 hPa ENE 6 mph /  9.7 km/h 8 mph /  12.9 km/h 87 % 0 in /  0.0 mm
05:42 34.9 °F /  1.6 °C 31.5 °F /  -0.3 °C 30.4 in /  1029.7 hPa NE 2 mph /  3.2 km/h 9 mph /  14.5 km/h 87 % 0 in /  0.0 mm
05:47 34.9 °F /  1.6 °C 31.5 °F /  -0.3 °C 30.4 in /  1029.7 hPa NNE 2 mph /  3.2 km/h 9 mph /  14.5 km/h 87 % 0 in /  0.0 mm
05:52 34.7 °F /  1.5 °C 31.3 °F /  -0.4 °C 30.4 in /  1030.0 hPa NNW 2 mph /  3.2 km/h 9 mph /  14.5 km/h 87 % 0 in /  0.0 mm
06:02 34.5 °F /  1.4 °C 31.1 °F /  -0.5 °C 30.4 in /  1030.0 hPa NNE 3 mph /  4.8 km/h 7 mph /  11.3 km/h 87 % 0 in /  0.0 mm
06:12 34.7 °F /  1.5 °C 31.5 °F /  -0.3 °C 30.4 in /  1030.0 hPa East 2 mph /  3.2 km/h 8 mph /  12.9 km/h 88 % 0 in /  0.0 mm
06:17 34.5 °F /  1.4 °C 31.1 °F /  -0.5 °C 30.4 in /  1030.0 hPa NNE 3 mph /  4.8 km/h 10 mph /  16.1 km/h 87 % 0 in /  0.0 mm
06:22 34.5 °F /  1.4 °C 31.1 °F /  -0.5 °C 30.4 in /  1030.0 hPa North 3 mph /  4.8 km/h 10 mph /  16.1 km/h 87 % 0 in /  0.0 mm
06:32 34.3 °F /  1.3 °C 31.1 °F /  -0.5 °C 30.4 in /  1030.4 hPa NNE 2 mph /  3.2 km/h 10 mph /  16.1 km/h 88 % 0 in /  0.0 mm
06:42 34.2 °F /  1.2 °C 30.9 °F /  -0.6 °C 30.4 in /  1030.4 hPa North 1 mph /  1.6 km/h 8 mph /  12.9 km/h 88 % 0 in /  0.0 mm
06:47 34 °F /  1.1 °C 30.7 °F /  -0.7 °C 30.4 in /  1030.4 hPa North 2 mph /  3.2 km/h 8 mph /  12.9 km/h 88 % 0 in /  0.0 mm
06:52 33.8 °F /  1.0 °C 30.6 °F /  -0.8 °C 30.4 in /  1030.4 hPa NNE 3 mph /  4.8 km/h 8 mph /  12.9 km/h 88 % 0 in /  0.0 mm
06:57 34 °F /  1.1 °C 30.7 °F /  -0.7 °C 30.4 in /  1030.4 hPa NNW 1 mph /  1.6 km/h 6 mph /  9.7 km/h 88 % 0 in /  0.0 mm
07:02 34 °F /  1.1 °C 30.7 °F /  -0.7 °C 30.4 in /  1030.4 hPa WNW 1 mph /  1.6 km/h 6 mph /  9.7 km/h 88 % 0 in /  0.0 mm
07:12 34.2 °F /  1.2 °C 30.9 °F /  -0.6 °C 30.4 in /  1030.4 hPa North 2 mph /  3.2 km/h 5 mph /  8.0 km/h 88 % 0 in /  0.0 mm
07:17 34.3 °F /  1.3 °C 31.1 °F /  -0.5 °C 30.4 in /  1030.4 hPa North 1 mph /  1.6 km/h 6 mph /  9.7 km/h 88 % 0 in /  0.0 mm
07:22 34.5 °F /  1.4 °C 31.3 °F /  -0.4 °C 30.4 in /  1030.4 hPa Calm   6 mph /  9.7 km/h 88 % 0 in /  0.0 mm
07:32 34.9 °F /  1.6 °C 31.5 °F /  -0.3 °C 30.4 in /  1030.4 hPa NNE 4 mph /  6.4 km/h 6 mph /  9.7 km/h 87 % 0 in /  0.0 mm
07:42 35.4 °F /  1.9 °C 32 °F /  0.0 °C 30.4 in /  1030.7 hPa WNW 1 mph /  1.6 km/h 5 mph /  8.0 km/h 87 % 0 in /  0.0 mm
07:47 35.8 °F /  2.1 °C 32 °F /  0.0 °C 30.4 in /  1030.7 hPa North 2 mph /  3.2 km/h 8 mph /  12.9 km/h 86 % 0 in /  0.0 mm
07:52 36 °F /  2.2 °C 32.2 °F /  0.1 °C 30.4 in /  1030.7 hPa North 4 mph /  6.4 km/h 8 mph /  12.9 km/h 86 % 0 in /  0.0 mm
07:57 36.1 °F /  2.3 °C 32.4 °F /  0.2 °C 30.4 in /  1030.7 hPa NNE 1 mph /  1.6 km/h 8 mph /  12.9 km/h 86 % 0 in /  0.0 mm
08:02 36.3 °F /  2.4 °C 32.2 °F /  0.1 °C 30.4 in /  1030.7 hPa NNW 2 mph /  3.2 km/h 8 mph /  12.9 km/h 85 % 0 in /  0.0 mm
08:12 37 °F /  2.8 °C 32.9 °F /  0.5 °C 30.4 in /  1031.0 hPa NNW 1 mph /  1.6 km/h 6 mph /  9.7 km/h 85 % 0 in /  0.0 mm
08:17 37.2 °F /  2.9 °C 33.1 °F /  0.6 °C 30.4 in /  1031.0 hPa North 7 mph /  11.3 km/h 7 mph /  11.3 km/h 85 % 0 in /  0.0 mm
08:22 37.6 °F /  3.1 °C 33.3 °F /  0.7 °C 30.4 in /  1031.0 hPa North 4 mph /  6.4 km/h 7 mph /  11.3 km/h 84 % 0 in /  0.0 mm
08:27 37.9 °F /  3.3 °C 33.3 °F /  0.7 °C 30.4 in /  1031.0 hPa WNW 1 mph /  1.6 km/h 7 mph /  11.3 km/h 83 % 0 in /  0.0 mm
08:32 38.3 °F /  3.5 °C 33.3 °F /  0.7 °C 30.4 in /  1031.0 hPa NNE 5 mph /  8.0 km/h 7 mph /  11.3 km/h 82 % 0 in /  0.0 mm
08:37 38.7 °F /  3.7 °C 33.3 °F /  0.7 °C 30.4 in /  1031.0 hPa North 3 mph /  4.8 km/h 13 mph /  20.9 km/h 81 % 0 in /  0.0 mm
08:42 39 °F /  3.9 °C 33.6 °F /  0.9 °C 30.4 in /  1031.0 hPa NE 3 mph /  4.8 km/h 13 mph /  20.9 km/h 81 % 0 in /  0.0 mm
08:52 39.4 °F /  4.1 °C 33.8 °F /  1.0 °C 30.4 in /  1031.0 hPa NE 10 mph /  16.1 km/h 13 mph /  20.9 km/h 80 % 0 in /  0.0 mm
08:57 39.6 °F /  4.2 °C 33.6 °F /  0.9 °C 30.4 in /  1031.0 hPa NNE 8 mph /  12.9 km/h 10 mph /  16.1 km/h 79 % 0 in /  0.0 mm
09:02 39.7 °F /  4.3 °C 33.8 °F /  1.0 °C 30.5 in /  1031.4 hPa NNE 5 mph /  8.0 km/h 10 mph /  16.1 km/h 79 % 0 in /  0.0 mm
09:12 39.9 °F /  4.4 °C 34 °F /  1.1 °C 30.5 in /  1031.4 hPa NNE 10 mph /  16.1 km/h 16 mph /  25.7 km/h 79 % 0 in /  0.0 mm
09:22 40.5 °F /  4.7 °C 34.5 °F /  1.4 °C 30.5 in /  1031.4 hPa NE 6 mph /  9.7 km/h 16 mph /  25.7 km/h 79 % 0 in /  0.0 mm
09:32 41 °F /  5.0 °C 34.3 °F /  1.3 °C 30.5 in /  1031.4 hPa NE 9 mph /  14.5 km/h 14 mph /  22.5 km/h 77 % 0 in /  0.0 mm
09:42 40.6 °F /  4.8 °C 34.3 °F /  1.3 °C 30.5 in /  1031.4 hPa NNE 6 mph /  9.7 km/h 12 mph /  19.3 km/h 78 % 0 in /  0.0 mm
09:52 41.2 °F /  5.1 °C 34.9 °F /  1.6 °C 30.5 in /  1031.4 hPa NNE 4 mph /  6.4 km/h 13 mph /  20.9 km/h 78 % 0 in /  0.0 mm
10:02 42.3 °F /  5.7 °C 34.9 °F /  1.6 °C 30.5 in /  1031.4 hPa ENE 4 mph /  6.4 km/h 14 mph /  22.5 km/h 75 % 0 in /  0.0 mm
10:12 43 °F /  6.1 °C 35.6 °F /  2.0 °C 30.5 in /  1031.4 hPa East 7 mph /  11.3 km/h 13 mph /  20.9 km/h 75 % 0 in /  0.0 mm
10:17 43.5 °F /  6.4 °C 35.8 °F /  2.1 °C 30.5 in /  1031.4 hPa NE 5 mph /  8.0 km/h 13 mph /  20.9 km/h 74 % 0 in /  0.0 mm
10:22 43.5 °F /  6.4 °C 35.8 °F /  2.1 °C 30.5 in /  1031.4 hPa NE 1 mph /  1.6 km/h 13 mph /  20.9 km/h 74 % 0 in /  0.0 mm
10:32 44.1 °F /  6.7 °C 34.9 °F /  1.6 °C 30.5 in /  1031.4 hPa NE 8 mph /  12.9 km/h 12 mph /  19.3 km/h 70 % 0 in /  0.0 mm
10:37 44.4 °F /  6.9 °C 34.9 °F /  1.6 °C 30.5 in /  1031.7 hPa ENE 7 mph /  11.3 km/h 14 mph /  22.5 km/h 69 % 0 in /  0.0 mm
10:42 44.8 °F /  7.1 °C 35.2 °F /  1.8 °C 30.5 in /  1031.7 hPa NNW 8 mph /  12.9 km/h 14 mph /  22.5 km/h 69 % 0 in /  0.0 mm
10:52 45.1 °F /  7.3 °C 35.2 °F /  1.8 °C 30.5 in /  1031.7 hPa North 8 mph /  12.9 km/h 14 mph /  22.5 km/h 68 % 0 in /  0.0 mm
11:02 45.7 °F /  7.6 °C 34.5 °F /  1.4 °C 30.5 in /  1031.7 hPa North 14 mph /  22.5 km/h 16 mph /  25.7 km/h 65 % 0 in /  0.0 mm
11:12 46.2 °F /  7.9 °C 35.1 °F /  1.7 °C 30.5 in /  1031.7 hPa NNE 11 mph /  17.7 km/h 19 mph /  30.6 km/h 65 % 0 in /  0.0 mm
11:17 46.4 °F /  8.0 °C 35.2 °F /  1.8 °C 30.5 in /  1031.7 hPa NE 10 mph /  16.1 km/h 16 mph /  25.7 km/h 65 % 0 in /  0.0 mm
11:22 45.9 °F /  7.7 °C 32.7 °F /  0.4 °C 30.5 in /  1032.1 hPa NNE 17 mph /  27.4 km/h 17 mph /  27.4 km/h 60 % 0 in /  0.0 mm
11:32 46 °F /  7.8 °C 33.3 °F /  0.7 °C 30.5 in /  1032.1 hPa ENE 8 mph /  12.9 km/h 22 mph /  35.4 km/h 61 % 0 in /  0.0 mm
11:37 46.8 °F /  8.2 °C 33.6 °F /  0.9 °C 30.5 in /  1032.1 hPa NE 5 mph /  8.0 km/h 22 mph /  35.4 km/h 60 % 0 in /  0.0 mm
11:42 46.2 °F /  7.9 °C 31.5 °F /  -0.3 °C 30.5 in /  1032.1 hPa North 12 mph /  19.3 km/h 18 mph /  29.0 km/h 56 % 0 in /  0.0 mm
11:47 45.7 °F /  7.6 °C 31.8 °F /  -0.1 °C 30.5 in /  1032.1 hPa NNE 6 mph /  9.7 km/h 21 mph /  33.8 km/h 58 % 0 in /  0.0 mm
11:52 46.8 °F /  8.2 °C 32.7 °F /  0.4 °C 30.5 in /  1032.1 hPa East 7 mph /  11.3 km/h 21 mph /  33.8 km/h 58 % 0 in /  0.0 mm
11:57 47.1 °F /  8.4 °C 32.7 °F /  0.4 °C 30.5 in /  1032.1 hPa NNE 6 mph /  9.7 km/h 21 mph /  33.8 km/h 57 % 0 in /  0.0 mm
12:02 47.5 °F /  8.6 °C 33.4 °F /  0.8 °C 30.5 in /  1032.1 hPa NE 9 mph /  14.5 km/h 21 mph /  33.8 km/h 58 % 0 in /  0.0 mm
12:07 46.9 °F /  8.3 °C 32 °F /  0.0 °C 30.5 in /  1032.1 hPa NNW 8 mph /  12.9 km/h 20 mph /  32.2 km/h 56 % 0 in /  0.0 mm
12:12 46.2 °F /  7.9 °C 31.8 °F /  -0.1 °C 30.5 in /  1032.1 hPa NE 9 mph /  14.5 km/h 20 mph /  32.2 km/h 57 % 0 in /  0.0 mm
12:17 46 °F /  7.8 °C 31.6 °F /  -0.2 °C 30.5 in /  1032.1 hPa NW 11 mph /  17.7 km/h 18 mph /  29.0 km/h 57 % 0 in /  0.0 mm
12:22 46.8 °F /  8.2 °C 31.8 °F /  -0.1 °C 30.5 in /  1032.1 hPa NNE 10 mph /  16.1 km/h 18 mph /  29.0 km/h 56 % 0 in /  0.0 mm
12:27 46.6 °F /  8.1 °C 29.8 °F /  -1.2 °C 30.5 in /  1032.1 hPa NNE 11 mph /  17.7 km/h 18 mph /  29.0 km/h 52 % 0 in /  0.0 mm
12:32 47.3 °F /  8.5 °C 30 °F /  -1.1 °C 30.5 in /  1031.7 hPa ENE 8 mph /  12.9 km/h 19 mph /  30.6 km/h 51 % 0 in /  0.0 mm
12:37 47.8 °F /  8.8 °C 29.7 °F /  -1.3 °C 30.5 in /  1031.7 hPa East 8 mph /  12.9 km/h 19 mph /  30.6 km/h 49 % 0 in /  0.0 mm
12:42 48 °F /  8.9 °C 31.6 °F /  -0.2 °C 30.5 in /  1032.1 hPa NNW 4 mph /  6.4 km/h 19 mph /  30.6 km/h 53 % 0 in /  0.0 mm
12:52 47.7 °F /  8.7 °C 31.8 °F /  -0.1 °C 30.5 in /  1032.1 hPa NNE 14 mph /  22.5 km/h 18 mph /  29.0 km/h 54 % 0 in /  0.0 mm
12:57 47.8 °F /  8.8 °C 30.6 °F /  -0.8 °C 30.5 in /  1032.1 hPa North 16 mph /  25.7 km/h 20 mph /  32.2 km/h 51 % 0 in /  0.0 mm
13:02 48.2 °F /  9.0 °C 32.7 °F /  0.4 °C 30.5 in /  1032.1 hPa ENE 10 mph /  16.1 km/h 20 mph /  32.2 km/h 55 % 0 in /  0.0 mm
13:07 47.5 °F /  8.6 °C 30.2 °F /  -1.0 °C 30.5 in /  1032.1 hPa NE 14 mph /  22.5 km/h 22 mph /  35.4 km/h 51 % 0 in /  0.0 mm
13:12 48 °F /  8.9 °C 30.7 °F /  -0.7 °C 30.5 in /  1032.1 hPa NE 7 mph /  11.3 km/h 22 mph /  35.4 km/h 51 % 0 in /  0.0 mm
13:17 48.4 °F /  9.1 °C 30 °F /  -1.1 °C 30.5 in /  1032.1 hPa North 7 mph /  11.3 km/h 20 mph /  32.2 km/h 49 % 0 in /  0.0 mm
13:22 48 °F /  8.9 °C 30.7 °F /  -0.7 °C 30.5 in /  1031.7 hPa NNE 11 mph /  17.7 km/h 20 mph /  32.2 km/h 51 % 0 in /  0.0 mm
13:27 48.4 °F /  9.1 °C 29.1 °F /  -1.6 °C 30.5 in /  1031.7 hPa NNE 12 mph /  19.3 km/h 18 mph /  29.0 km/h 47 % 0 in /  0.0 mm
13:32 48.7 °F /  9.3 °C 29.8 °F /  -1.2 °C 30.5 in /  1031.7 hPa NE 12 mph /  19.3 km/h 18 mph /  29.0 km/h 48 % 0 in /  0.0 mm
13:37 49.1 °F /  9.5 °C 30.2 °F /  -1.0 °C 30.5 in /  1031.7 hPa NE 13 mph /  20.9 km/h 21 mph /  33.8 km/h 48 % 0 in /  0.0 mm
13:42 49.5 °F /  9.7 °C 31.1 °F /  -0.5 °C 30.5 in /  1031.4 hPa NE 13 mph /  20.9 km/h 21 mph /  33.8 km/h 49 % 0 in /  0.0 mm
13:52 48.7 °F /  9.3 °C 30.9 °F /  -0.6 °C 30.5 in /  1031.7 hPa NE 19 mph /  30.6 km/h 21 mph /  33.8 km/h 50 % 0 in /  0.0 mm
13:57 48 °F /  8.9 °C 29.3 °F /  -1.5 °C 30.5 in /  1031.7 hPa NE 8 mph /  12.9 km/h 19 mph /  30.6 km/h 48 % 0 in /  0.0 mm
14:07 49.8 °F /  9.9 °C 30.9 °F /  -0.6 °C 30.5 in /  1031.4 hPa NNW 5 mph /  8.0 km/h 19 mph /  30.6 km/h 48 % 0 in /  0.0 mm
14:12 50.4 °F /  10.2 °C 30.9 °F /  -0.6 °C 30.5 in /  1031.4 hPa NW 5 mph /  8.0 km/h 19 mph /  30.6 km/h 47 % 0 in /  0.0 mm
14:17 49.3 °F /  9.6 °C 30.9 °F /  -0.6 °C 30.5 in /  1031.4 hPa NE 18 mph /  29.0 km/h 19 mph /  30.6 km/h 49 % 0 in /  0.0 mm
14:22 48.6 °F /  9.2 °C 31.3 °F /  -0.4 °C 30.5 in /  1031.4 hPa NNE 13 mph /  20.9 km/h 19 mph /  30.6 km/h 51 % 0 in /  0.0 mm
14:32 48.9 °F /  9.4 °C 28.6 °F /  -1.9 °C 30.5 in /  1031.4 hPa NE 18 mph /  29.0 km/h 23 mph /  37.0 km/h 45 % 0 in /  0.0 mm
14:37 48.7 °F /  9.3 °C 29.8 °F /  -1.2 °C 30.5 in /  1031.4 hPa NE 18 mph /  29.0 km/h 27 mph /  43.4 km/h 48 % 0 in /  0.0 mm
14:42 48.7 °F /  9.3 °C 28.4 °F /  -2.0 °C 30.5 in /  1031.4 hPa NNE 9 mph /  14.5 km/h 27 mph /  43.4 km/h 45 % 0 in /  0.0 mm
14:47 48 °F /  8.9 °C 28.2 °F /  -2.1 °C 30.5 in /  1031.4 hPa NE 17 mph /  27.4 km/h 25 mph /  40.2 km/h 46 % 0 in /  0.0 mm
14:52 48.9 °F /  9.4 °C 29.1 °F /  -1.6 °C 30.5 in /  1031.4 hPa NE 9 mph /  14.5 km/h 25 mph /  40.2 km/h 46 % 0 in /  0.0 mm
14:57 49.6 °F /  9.8 °C 28 °F /  -2.2 °C 30.5 in /  1031.4 hPa NE 6 mph /  9.7 km/h 25 mph /  40.2 km/h 43 % 0 in /  0.0 mm
15:02 48.7 °F /  9.3 °C 29.8 °F /  -1.2 °C 30.5 in /  1031.4 hPa NE 13 mph /  20.9 km/h 25 mph /  40.2 km/h 48 % 0 in /  0.0 mm
15:12 49.3 °F /  9.6 °C 28.2 °F /  -2.1 °C 30.5 in /  1031.4 hPa NNW 5 mph /  8.0 km/h 20 mph /  32.2 km/h 44 % 0 in /  0.0 mm
15:17 49.5 °F /  9.7 °C 28.9 °F /  -1.7 °C 30.5 in /  1031.4 hPa NE 9 mph /  14.5 km/h 22 mph /  35.4 km/h 45 % 0 in /  0.0 mm
15:22 49.3 °F /  9.6 °C 28.8 °F /  -1.8 °C 30.4 in /  1031.0 hPa NE 19 mph /  30.6 km/h 22 mph /  35.4 km/h 45 % 0 in /  0.0 mm
15:27 49.5 °F /  9.7 °C 28.9 °F /  -1.7 °C 30.5 in /  1031.4 hPa NNE 7 mph /  11.3 km/h 24 mph /  38.6 km/h 45 % 0 in /  0.0 mm
15:32 49.8 °F /  9.9 °C 30.9 °F /  -0.6 °C 30.5 in /  1031.4 hPa North 5 mph /  8.0 km/h 24 mph /  38.6 km/h 48 % 0 in /  0.0 mm
15:37 49.6 °F /  9.8 °C 29.1 °F /  -1.6 °C 30.4 in /  1031.0 hPa NNW 10 mph /  16.1 km/h 24 mph /  38.6 km/h 45 % 0 in /  0.0 mm
15:42 49.8 °F /  9.9 °C 29.3 °F /  -1.5 °C 30.4 in /  1031.0 hPa NE 10 mph /  16.1 km/h 24 mph /  38.6 km/h 45 % 0 in /  0.0 mm
15:47 49.6 °F /  9.8 °C 29.1 °F /  -1.6 °C 30.4 in /  1031.0 hPa NE 6 mph /  9.7 km/h 22 mph /  35.4 km/h 45 % 0 in /  0.0 mm
15:52 49.6 °F /  9.8 °C 29.1 °F /  -1.6 °C 30.4 in /  1031.0 hPa NE 5 mph /  8.0 km/h 22 mph /  35.4 km/h 45 % 0 in /  0.0 mm
16:02 48.9 °F /  9.4 °C 28.6 °F /  -1.9 °C 30.4 in /  1031.0 hPa ENE 6 mph /  9.7 km/h 20 mph /  32.2 km/h 45 % 0 in /  0.0 mm
16:12 49.6 °F /  9.8 °C 29.1 °F /  -1.6 °C 30.4 in /  1031.0 hPa NNE 6 mph /  9.7 km/h 22 mph /  35.4 km/h 45 % 0 in /  0.0 mm
16:17 50.2 °F /  10.1 °C 29.1 °F /  -1.6 °C 30.4 in /  1031.0 hPa ESE 3 mph /  4.8 km/h 22 mph /  35.4 km/h 44 % 0 in /  0.0 mm
16:22 49.6 °F /  9.8 °C 27 °F /  -2.8 °C 30.4 in /  1031.0 hPa NNE 7 mph /  11.3 km/h 22 mph /  35.4 km/h 41 % 0 in /  0.0 mm
16:27 49.3 °F /  9.6 °C 27.7 °F /  -2.4 °C 30.4 in /  1031.0 hPa NNE 5 mph /  8.0 km/h 20 mph /  32.2 km/h 43 % 0 in /  0.0 mm
16:32 50 °F /  10.0 °C 27.9 °F /  -2.3 °C 30.4 in /  1030.7 hPa ENE 8 mph /  12.9 km/h 20 mph /  32.2 km/h 42 % 0 in /  0.0 mm
16:37 50.5 °F /  10.3 °C 29.5 °F /  -1.4 °C 30.4 in /  1030.7 hPa NNE 22 mph /  35.4 km/h 22 mph /  35.4 km/h 44 % 0 in /  0.0 mm
16:42 49.3 °F /  9.6 °C 28.8 °F /  -1.8 °C 30.4 in /  1031.0 hPa NE 8 mph /  12.9 km/h 20 mph /  32.2 km/h 45 % 0 in /  0.0 mm
16:47 48.6 °F /  9.2 °C 28.8 °F /  -1.8 °C 30.4 in /  1031.0 hPa NE 17 mph /  27.4 km/h 26 mph /  41.8 km/h 46 % 0 in /  0.0 mm
16:57 48.9 °F /  9.4 °C 28.6 °F /  -1.9 °C 30.4 in /  1031.0 hPa NNW 11 mph /  17.7 km/h 22 mph /  35.4 km/h 45 % 0 in /  0.0 mm
17:02 49.6 °F /  9.8 °C 28.6 °F /  -1.9 °C 30.4 in /  1030.7 hPa NE 7 mph /  11.3 km/h 22 mph /  35.4 km/h 44 % 0 in /  0.0 mm
17:12 48.7 °F /  9.3 °C 27.3 °F /  -2.6 °C 30.4 in /  1030.7 hPa NE 11 mph /  17.7 km/h 19 mph /  30.6 km/h 43 % 0 in /  0.0 mm
17:17 48.9 °F /  9.4 °C 28.6 °F /  -1.9 °C 30.4 in /  1030.7 hPa NNW 9 mph /  14.5 km/h 21 mph /  33.8 km/h 45 % 0 in /  0.0 mm
17:22 49.5 °F /  9.7 °C 27.9 °F /  -2.3 °C 30.4 in /  1030.7 hPa NE 10 mph /  16.1 km/h 21 mph /  33.8 km/h 43 % 0 in /  0.0 mm
17:32 49.3 °F /  9.6 °C 28.8 °F /  -1.8 °C 30.4 in /  1030.7 hPa NE 13 mph /  20.9 km/h 18 mph /  29.0 km/h 45 % 0 in /  0.0 mm
17:42 49.3 °F /  9.6 °C 29.8 °F /  -1.2 °C 30.4 in /  1030.7 hPa North 5 mph /  8.0 km/h 20 mph /  32.2 km/h 47 % 0 in /  0.0 mm
17:47 49.5 °F /  9.7 °C 27.3 °F /  -2.6 °C 30.4 in /  1030.7 hPa NE 15 mph /  24.1 km/h 20 mph /  32.2 km/h 42 % 0 in /  0.0 mm
17:52 49.6 °F /  9.8 °C 28.6 °F /  -1.9 °C 30.4 in /  1030.7 hPa NNE 6 mph /  9.7 km/h 20 mph /  32.2 km/h 44 % 0 in /  0.0 mm
17:57 49.5 °F /  9.7 °C 27.9 °F /  -2.3 °C 30.4 in /  1030.7 hPa NE 16 mph /  25.7 km/h 20 mph /  32.2 km/h 43 % 0 in /  0.0 mm
18:02 48.7 °F /  9.3 °C 28.9 °F /  -1.7 °C 30.4 in /  1031.0 hPa NNE 11 mph /  17.7 km/h 20 mph /  32.2 km/h 46 % 0 in /  0.0 mm
18:12 48.6 °F /  9.2 °C 28.8 °F /  -1.8 °C 30.4 in /  1030.7 hPa NNE 15 mph /  24.1 km/h 20 mph /  32.2 km/h 46 % 0 in /  0.0 mm
18:17 48.6 °F /  9.2 °C 27.1 °F /  -2.7 °C 30.4 in /  1030.7 hPa NE 14 mph /  22.5 km/h 19 mph /  30.6 km/h 43 % 0 in /  0.0 mm
18:22 48.9 °F /  9.4 °C 28 °F /  -2.2 °C 30.4 in /  1031.0 hPa NE 13 mph /  20.9 km/h 19 mph /  30.6 km/h 44 % 0 in /  0.0 mm
18:27 48.9 °F /  9.4 °C 29.1 °F /  -1.6 °C 30.4 in /  1031.0 hPa NNE 10 mph /  16.1 km/h 19 mph /  30.6 km/h 46 % 0 in /  0.0 mm
18:32 48 °F /  8.9 °C 28.2 °F /  -2.1 °C 30.4 in /  1031.0 hPa NE 20 mph /  32.2 km/h 20 mph /  32.2 km/h 46 % 0 in /  0.0 mm
18:37 47.5 °F /  8.6 °C 27.7 °F /  -2.4 °C 30.4 in /  1031.0 hPa ENE 7 mph /  11.3 km/h 19 mph /  30.6 km/h 46 % 0 in /  0.0 mm
18:42 47.5 °F /  8.6 °C 27.7 °F /  -2.4 °C 30.4 in /  1031.0 hPa NE 6 mph /  9.7 km/h 21 mph /  33.8 km/h 46 % 0 in /  0.0 mm
18:52 48 °F /  8.9 °C 28.8 °F /  -1.8 °C 30.4 in /  1031.0 hPa NE 10 mph /  16.1 km/h 21 mph /  33.8 km/h 47 % 0 in /  0.0 mm
18:57 48 °F /  8.9 °C 28.2 °F /  -2.1 °C 30.4 in /  1031.0 hPa NE 12 mph /  19.3 km/h 16 mph /  25.7 km/h 46 % 0 in /  0.0 mm
19:02 47.7 °F /  8.7 °C 26.8 °F /  -2.9 °C 30.4 in /  1031.0 hPa North 16 mph /  25.7 km/h 16 mph /  25.7 km/h 44 % 0 in /  0.0 mm
19:12 47.7 °F /  8.7 °C 27.9 °F /  -2.3 °C 30.4 in /  1031.0 hPa ENE 5 mph /  8.0 km/h 20 mph /  32.2 km/h 46 % 0 in /  0.0 mm
19:17 47.8 °F /  8.8 °C 28 °F /  -2.2 °C 30.4 in /  1031.0 hPa NNE 3 mph /  4.8 km/h 18 mph /  29.0 km/h 46 % 0 in /  0.0 mm
19:22 47.5 °F /  8.6 °C 27.1 °F /  -2.7 °C 30.4 in /  1031.0 hPa NNE 8 mph /  12.9 km/h 18 mph /  29.0 km/h 45 % 0 in /  0.0 mm
19:32 46.8 °F /  8.2 °C 27.7 °F /  -2.4 °C 30.4 in /  1031.0 hPa NE 17 mph /  27.4 km/h 17 mph /  27.4 km/h 47 % 0 in /  0.0 mm
19:37 46.8 °F /  8.2 °C 27.7 °F /  -2.4 °C 30.5 in /  1031.4 hPa ENE 4 mph /  6.4 km/h 19 mph /  30.6 km/h 47 % 0 in /  0.0 mm
19:42 46.8 °F /  8.2 °C 27.1 °F /  -2.7 °C 30.4 in /  1031.0 hPa NNE 8 mph /  12.9 km/h 19 mph /  30.6 km/h 46 % 0 in /  0.0 mm
19:47 46.4 °F /  8.0 °C 26.2 °F /  -3.2 °C 30.5 in /  1031.4 hPa NE 8 mph /  12.9 km/h 19 mph /  30.6 km/h 45 % 0 in /  0.0 mm
19:52 46 °F /  7.8 °C 26.4 °F /  -3.1 °C 30.5 in /  1031.4 hPa NE 11 mph /  17.7 km/h 19 mph /  30.6 km/h 46 % 0 in /  0.0 mm
19:57 45.9 °F /  7.7 °C 26.8 °F /  -2.9 °C 30.5 in /  1031.4 hPa NNE 11 mph /  17.7 km/h 18 mph /  29.0 km/h 47 % 0 in /  0.0 mm
20:02 45.9 °F /  7.7 °C 26.2 °F /  -3.2 °C 30.5 in /  1031.4 hPa NE 11 mph /  17.7 km/h 18 mph /  29.0 km/h 46 % 0 in /  0.0 mm
20:12 45.9 °F /  7.7 °C 26.2 °F /  -3.2 °C 30.5 in /  1031.4 hPa NE 9 mph /  14.5 km/h 15 mph /  24.1 km/h 46 % 0 in /  0.0 mm
20:17 45.5 °F /  7.5 °C 25.9 °F /  -3.4 °C 30.5 in /  1031.4 hPa NNE 5 mph /  8.0 km/h 17 mph /  27.4 km/h 46 % 0 in /  0.0 mm
20:22 45.1 °F /  7.3 °C 26.1 °F /  -3.3 °C 30.5 in /  1031.7 hPa NE 14 mph /  22.5 km/h 17 mph /  27.4 km/h 47 % 0 in /  0.0 mm
20:27 45 °F /  7.2 °C 25.9 °F /  -3.4 °C 30.5 in /  1031.7 hPa NE 10 mph /  16.1 km/h 19 mph /  30.6 km/h 47 % 0 in /  0.0 mm
20:32 44.8 °F /  7.1 °C 26.2 °F /  -3.2 °C 30.5 in /  1031.7 hPa NE 9 mph /  14.5 km/h 19 mph /  30.6 km/h 48 % 0 in /  0.0 mm
20:37 44.4 °F /  6.9 °C 25.9 °F /  -3.4 °C 30.5 in /  1031.7 hPa NE 6 mph /  9.7 km/h 19 mph /  30.6 km/h 48 % 0 in /  0.0 mm
20:42 44.2 °F /  6.8 °C 25.7 °F /  -3.5 °C 30.5 in /  1031.7 hPa NE 10 mph /  16.1 km/h 19 mph /  30.6 km/h 48 % 0 in /  0.0 mm
20:47 44.1 °F /  6.7 °C 25.7 °F /  -3.5 °C 30.5 in /  1032.1 hPa North 6 mph /  9.7 km/h 15 mph /  24.1 km/h 48 % 0 in /  0.0 mm
20:52 43.9 °F /  6.6 °C 25.9 °F /  -3.4 °C 30.5 in /  1032.1 hPa NNE 8 mph /  12.9 km/h 15 mph /  24.1 km/h 49 % 0 in /  0.0 mm
20:57 43.5 °F /  6.4 °C 26.1 °F /  -3.3 °C 30.5 in /  1032.1 hPa ENE 5 mph /  8.0 km/h 14 mph /  22.5 km/h 50 % 0 in /  0.0 mm
21:02 43.2 °F /  6.2 °C 26.2 °F /  -3.2 °C 30.5 in /  1032.1 hPa NE 4 mph /  6.4 km/h 14 mph /  22.5 km/h 51 % 0 in /  0.0 mm
21:07 43 °F /  6.1 °C 26.1 °F /  -3.3 °C 30.5 in /  1032.1 hPa NNE 6 mph /  9.7 km/h 9 mph /  14.5 km/h 51 % 0 in /  0.0 mm
21:12 42.6 °F /  5.9 °C 25.7 °F /  -3.5 °C 30.5 in /  1032.1 hPa NNE 6 mph /  9.7 km/h 9 mph /  14.5 km/h 51 % 0 in /  0.0 mm
21:17 42.6 °F /  5.9 °C 25.7 °F /  -3.5 °C 30.5 in /  1032.1 hPa NNE 5 mph /  8.0 km/h 9 mph /  14.5 km/h 51 % 0 in /  0.0 mm
21:22 42.4 °F /  5.8 °C 26.1 °F /  -3.3 °C 30.5 in /  1032.4 hPa ENE 4 mph /  6.4 km/h 9 mph /  14.5 km/h 52 % 0 in /  0.0 mm
21:27 42.3 °F /  5.7 °C 25.9 °F /  -3.4 °C 30.5 in /  1032.1 hPa NNE 9 mph /  14.5 km/h 10 mph /  16.1 km/h 52 % 0 in /  0.0 mm
21:32 42.4 °F /  5.8 °C 26.1 °F /  -3.3 °C 30.5 in /  1032.4 hPa NNW 2 mph /  3.2 km/h 10 mph /  16.1 km/h 52 % 0 in /  0.0 mm
21:42 42.6 °F /  5.9 °C 25.7 °F /  -3.5 °C 30.5 in /  1032.4 hPa NNE 7 mph /  11.3 km/h 12 mph /  19.3 km/h 51 % 0 in /  0.0 mm
21:47 42.6 °F /  5.9 °C 25.7 °F /  -3.5 °C 30.5 in /  1032.4 hPa NE 4 mph /  6.4 km/h 15 mph /  24.1 km/h 51 % 0 in /  0.0 mm
21:52 42.4 °F /  5.8 °C 25.5 °F /  -3.6 °C 30.5 in /  1032.7 hPa NE 4 mph /  6.4 km/h 15 mph /  24.1 km/h 51 % 0 in /  0.0 mm
21:57 42.3 °F /  5.7 °C 25.9 °F /  -3.4 °C 30.5 in /  1032.7 hPa NE 2 mph /  3.2 km/h 14 mph /  22.5 km/h 52 % 0 in /  0.0 mm
22:02 41.9 °F /  5.5 °C 26.1 °F /  -3.3 °C 30.5 in /  1032.7 hPa NNE 2 mph /  3.2 km/h 14 mph /  22.5 km/h 53 % 0 in /  0.0 mm
22:12 41.2 °F /  5.1 °C 26.2 °F /  -3.2 °C 30.5 in /  1032.7 hPa Calm   12 mph /  19.3 km/h 55 % 0 in /  0.0 mm
22:17 40.6 °F /  4.8 °C 26.2 °F /  -3.2 °C 30.5 in /  1032.7 hPa WNW 1 mph /  1.6 km/h 6 mph /  9.7 km/h 56 % 0 in /  0.0 mm
22:22 40.3 °F /  4.6 °C 26.2 °F /  -3.2 °C 30.5 in /  1032.7 hPa NW 1 mph /  1.6 km/h 6 mph /  9.7 km/h 57 % 0 in /  0.0 mm
22:27 39.9 °F /  4.4 °C 25.9 °F /  -3.4 °C 30.5 in /  1032.7 hPa NNW 3 mph /  4.8 km/h 6 mph /  9.7 km/h 57 % 0 in /  0.0 mm
22:32 39.7 °F /  4.3 °C 26.2 °F /  -3.2 °C 30.5 in /  1032.7 hPa NW 1 mph /  1.6 km/h 6 mph /  9.7 km/h 58 % 0 in /  0.0 mm
22:37 39.6 °F /  4.2 °C 26.1 °F /  -3.3 °C 30.5 in /  1032.7 hPa NNW 1 mph /  1.6 km/h 5 mph /  8.0 km/h 58 % 0 in /  0.0 mm
22:42 39 °F /  3.9 °C 25.9 °F /  -3.4 °C 30.5 in /  1033.1 hPa Calm   5 mph /  8.0 km/h 59 % 0 in /  0.0 mm
22:47 38.8 °F /  3.8 °C 26.1 °F /  -3.3 °C 30.5 in /  1032.7 hPa North 1 mph /  1.6 km/h 5 mph /  8.0 km/h 60 % 0 in /  0.0 mm
22:52 38.7 °F /  3.7 °C 26.1 °F /  -3.3 °C 30.5 in /  1033.1 hPa NNE 1 mph /  1.6 km/h 5 mph /  8.0 km/h 60 % 0 in /  0.0 mm
22:57 38.5 °F /  3.6 °C 26.2 °F /  -3.2 °C 30.5 in /  1033.1 hPa North 1 mph /  1.6 km/h 5 mph /  8.0 km/h 61 % 0 in /  0.0 mm
23:02 38.5 °F /  3.6 °C 26.2 °F /  -3.2 °C 30.5 in /  1033.1 hPa North 1 mph /  1.6 km/h 5 mph /  8.0 km/h 61 % 0 in /  0.0 mm
23:07 38.1 °F /  3.4 °C 25.9 °F /  -3.4 °C 30.5 in /  1033.1 hPa NNW 2 mph /  3.2 km/h 3 mph /  4.8 km/h 61 % 0 in /  0.0 mm
23:12 38.5 °F /  3.6 °C 26.2 °F /  -3.2 °C 30.5 in /  1033.1 hPa NW 1 mph /  1.6 km/h 3 mph /  4.8 km/h 61 % 0 in /  0.0 mm
23:17 38.7 °F /  3.7 °C 26.4 °F /  -3.1 °C 30.5 in /  1033.1 hPa NNW 3 mph /  4.8 km/h 5 mph /  8.0 km/h 61 % 0 in /  0.0 mm
23:22 38.7 °F /  3.7 °C 26.1 °F /  -3.3 °C 30.5 in /  1033.1 hPa NE 4 mph /  6.4 km/h 5 mph /  8.0 km/h 60 % 0 in /  0.0 mm
23:32 38.5 °F /  3.6 °C 25.9 °F /  -3.4 °C 30.5 in /  1033.1 hPa NE 4 mph /  6.4 km/h 7 mph /  11.3 km/h 60 % 0 in /  0.0 mm
23:37 38.5 °F /  3.6 °C 25.9 °F /  -3.4 °C 30.5 in /  1033.1 hPa NNE 1 mph /  1.6 km/h 7 mph /  11.3 km/h 60 % 0 in /  0.0 mm
23:42 38.5 °F /  3.6 °C 25.9 °F /  -3.4 °C 30.5 in /  1033.1 hPa NNE 2 mph /  3.2 km/h 7 mph /  11.3 km/h 60 % 0 in /  0.0 mm
23:52 38.7 °F /  3.7 °C 25.5 °F /  -3.6 °C 30.5 in /  1033.1 hPa NNE 3 mph /  4.8 km/h 6 mph /  9.7 km/h 59 % 0 in /  0.0 mm
Meteo18
Compliments of Weather Underground - 4 mb

Script developed by  Jim McMurry - jmcmurry@mwt.net Adapted for the template by  Wim van der Kuil - Leuven-Template.eu

You find our weather info also at:

European Weather Network

Weather Underground

Equipment we use:

Weather-station
Davis Vue

Weather-program
Meteohub

Weather-server
Raspberry PI 2 B+

Provider
1 and 1

Davis Vue

Meteohub

Raspberry PI 2 B+

1 and 1